CheckWX is a tool to help pilots better visualize weather data.  It is not intended as a substitute for an official pre-flight weather briefing.

16:41:25 UTC

CYYC METAR
Calgary International Airport
Calgary, Canada
Current

41 mins ago

CYYC 161600Z 01008KT 6SM BR OVC010 12/10 A2972 RMK SC8 SLP067 DENSITY ALT 4400FT
Observed
Sep-16 @ 16:00 UTC
Wind
  • 010° at 8 KTS
Visibility
6 SM
Flight Rules
MVFR
Conditions
Mist
Cloud Levels
  • Overcast at 1,000' AGL
Temperature
12°C / 54°F
Dewpoint
10°C / 50°F
Humidity
88%
Altimeter
29.72" Hg
Pressure
1006.42 hPa
Previous

49 mins ago

CYYC 161552Z 01008KT 5SM BR OVC010 12/09 A2972 RMK FG1SC7 SLP066 DENSITY ALT 4400FT
Observed
Sep-16 @ 15:52 UTC
Wind
  • 010° at 8 KTS
Visibility
5 SM
Flight Rules
MVFR
Conditions
Mist
Cloud Levels
  • Overcast at 1,000' AGL
Temperature
12°C / 54°F
Dewpoint
C / 48°F
Humidity
82%
Altimeter
29.72" Hg
Pressure
1006.42 hPa
Previous

2 hours ago

CYYC 161500Z 36008KT 5SM BR OVC008 11/10 A2972 RMK FG1SC7 SLP066 DENSITY ALT 4300FT
Observed
Sep-16 @ 15:00 UTC
Wind
  • 360° at 8 KTS
Visibility
5 SM
Flight Rules
IFR
Conditions
Mist
Cloud Levels
  • Overcast at 800' AGL
Temperature
11°C / 52°F
Dewpoint
10°C / 50°F
Humidity
94%
Altimeter
29.72" Hg
Pressure
1006.42 hPa